AKK weather

Akhiok Airport
Akhiok, Alaska, United States

Public forecast

Using degrees Fahrenheit for public forecast. Weather courtesy of forecast.io.

METAR (pilot weather report)

Retrieved 2019/07/17 18:56 UTC (1 hour ago):

PAKH 171856Z AUTO 31016G20KT 10SM FEW100 14/11 A2976 RMK AO2 SLP080 T01440106 $

TAF (pilot weather forecast)

Closest forecast is Kodiak Airport, 73.3 nm (135.7 km) NE. Retrieved 2019/07/17 18:22 UTC (2 hours ago):

TAF PADQ 171720Z 1718/1818 30010KT P6SM SCT070 BKN100 FM172100 30010G18KT P6SM SCT100